MOL Celebration — C6WW7 — position and weather

sailwx.info

Track history (hours):
 
Tides and Currents Weather Stations Pressure Air Temp Water Temp Dewpoint Dewpoint Depression Visibility Wind Speed Wind Dir Waves Ship Positions

MOL Celebration

Last reported at 2015-Mar-20 11:33 UTC. Time now 2015-Mar-27 22:15 UTC.
Position N 22°07' E 114°19'.

Length 316 m; draft 12.5 m.

Type: Ship (hazmat cat D). MMSI: 309901000.

Date/timePositionNaut miles runAvg speedWind from/ knotsBaromVisibWave heightAir tempDewpointWater temp
2015-Mar-20 11:33N 22°07' E 114°19'1510.6
2015-Mar-20 10:09N 22°16' E 114°06'4 6.7
2015-Mar-20 09:33N 22°20' E 114°07'0 0.2
2015-Mar-20 08:26N 22°20' E 114°08'0 0.0
2015-Mar-20 07:32N 22°20' E 114°08'0 0.0
2015-Mar-20 00:26N 22°20' E 114°08'0 0.0
2015-Mar-19 23:26N 22°20' E 114°08'0 0.0
2015-Mar-19 22:08N 22°20' E 114°08'0 0.0
2015-Mar-19 20:08N 22°20' E 114°08'0 0.0
2015-Mar-19 19:32N 22°20' E 114°08'0 0.0
2015-Mar-19 18:05N 22°20' E 114°08'0 0.0
2015-Mar-19 17:32N 22°20' E 114°08'0 0.0
2015-Mar-19 16:20N 22°20' E 114°08'0 0.0
2015-Mar-19 15:32N 22°20' E 114°08'0 0.0
2015-Mar-19 14:26N 22°20' E 114°08'0 0.0
2015-Mar-19 10:23N 22°20' E 114°08'0 0.0
2015-Mar-19 09:18N 22°20' E 114°08'0 0.0
2015-Mar-19 05:17N 22°20' E 114°08'0 0.0
2015-Mar-19 02:17N 22°20' E 114°08'0 0.0
2015-Mar-19 01:08N 22°20' E 114°08'0 0.0
2015-Mar-19 00:05N 22°20' E 114°08'0 0.0
2015-Mar-18 23:26N 22°20' E 114°08'0 0.0
2015-Mar-18 22:17N 22°20' E 114°08'0 0.0
2015-Mar-18 21:29N 22°20' E 114°08'3 2.7
2015-Mar-18 20:33N 22°18' E 114°06'8 7.7
2015-Mar-18 19:33N 22°12' E 114°11'7 5.2
2015-Mar-18 18:14N 22°09' E 114°18'4 5.7
2015-Mar-18 17:33N 22°09' E 114°22'9 9.2
2015-Mar-18 16:32N 22°09' E 114°32'29715.6
2015-Mar-17 21:30N 24°27' E 119°18'  
Track history (hours):
 
Tides and Currents Weather Stations Pressure Air Temp Water Temp Dewpoint Dewpoint Depression Visibility Wind Speed Wind Dir Waves Ship Positions

MOL Celebration

Last reported at 2015-Mar-20 11:33 UTC. Time now 2015-Mar-27 22:15 UTC.
Position N 22°07' E 114°19'.

Length 316 m; draft 12.5 m.

Type: Ship (hazmat cat D). MMSI: 309901000.

Date/timePositionNaut miles runAvg speedWind from/ knotsBaromVisibWave heightAir tempDewpointWater temp
2015-Mar-20 11:33N 22°07' E 114°19'1510.6
2015-Mar-20 10:09N 22°16' E 114°06'4 6.7
2015-Mar-20 09:33N 22°20' E 114°07'0 0.2
2015-Mar-20 08:26N 22°20' E 114°08'0 0.0
2015-Mar-20 07:32N 22°20' E 114°08'0 0.0
2015-Mar-20 00:26N 22°20' E 114°08'0 0.0
2015-Mar-19 23:26N 22°20' E 114°08'0 0.0
2015-Mar-19 22:08N 22°20' E 114°08'0 0.0
2015-Mar-19 20:08N 22°20' E 114°08'0 0.0
2015-Mar-19 19:32N 22°20' E 114°08'0 0.0
2015-Mar-19 18:05N 22°20' E 114°08'0 0.0
2015-Mar-19 17:32N 22°20' E 114°08'0 0.0
2015-Mar-19 16:20N 22°20' E 114°08'0 0.0
2015-Mar-19 15:32N 22°20' E 114°08'0 0.0
2015-Mar-19 14:26N 22°20' E 114°08'0 0.0
2015-Mar-19 10:23N 22°20' E 114°08'0 0.0
2015-Mar-19 09:18N 22°20' E 114°08'0 0.0
2015-Mar-19 05:17N 22°20' E 114°08'0 0.0
2015-Mar-19 02:17N 22°20' E 114°08'0 0.0
2015-Mar-19 01:08N 22°20' E 114°08'0 0.0
2015-Mar-19 00:05N 22°20' E 114°08'0 0.0
2015-Mar-18 23:26N 22°20' E 114°08'0 0.0
2015-Mar-18 22:17N 22°20' E 114°08'0 0.0
2015-Mar-18 21:29N 22°20' E 114°08'3 2.7
2015-Mar-18 20:33N 22°18' E 114°06'8 7.7
2015-Mar-18 19:33N 22°12' E 114°11'7 5.2
2015-Mar-18 18:14N 22°09' E 114°18'4 5.7
2015-Mar-18 17:33N 22°09' E 114°22'9 9.2
2015-Mar-18 16:32N 22°09' E 114°32'29715.6
2015-Mar-17 21:30N 24°27' E 119°18'  

Dump ship's entire track history